Time;durP1;ratioP1;P1;durP2;ratioP2;P2;SDS_P1;SDS_P2;PMS_P1;PMS_P2;Temp;Humidity;BMP_temperature;BMP_pressure;BME280_temperature;BME280_humidity;BME280_pressure;Samples;Min_cycle;Max_cycle;Signal;HPM_P1;HPM_P2
2021/08/07 00:02:17;;;;;;;;;;;17.30;99.90;;;;;;5130320;27;19930;-86
2021/08/07 00:04:42;;;;;;;;;;;17.30;99.90;;;;;;5129480;27;20043;-86
2021/08/07 00:07:08;;;;;;;;;;;17.30;99.90;;;;;;5155113;27;19926;-86
2021/08/07 00:09:34;;;;;;;;;;;17.30;99.90;;;;;;5168892;27;19958;-86
2021/08/07 00:11:59;;;;;;;;;;;17.30;99.90;;;;;;5169411;27;19919;-86
2021/08/07 00:14:25;;;;;;;;;;;17.30;99.90;;;;;;5149916;27;19927;-86
2021/08/07 00:16:51;;;;;;;;;;;17.40;99.90;;;;;;5150536;27;19934;-86
2021/08/07 00:19:16;;;;;;;;;;;17.30;99.90;;;;;;5169425;27;20010;-86
2021/08/07 00:21:42;;;;;;;;;;;17.30;99.90;;;;;;5169171;27;19932;-86
2021/08/07 00:24:08;;;;;;;;;;;17.30;99.90;;;;;;5117318;27;19919;-86
2021/08/07 00:26:34;;;;;;;;;;;17.30;99.90;;;;;;5129469;27;19960;-86
2021/08/07 00:28:59;;;;;;;;;;;17.20;99.90;;;;;;5148529;27;19934;-86
2021/08/07 00:31:25;;;;;;;;;;;17.20;99.90;;;;;;5148417;27;19926;-86
2021/08/07 00:33:51;;;;;;;;;;;17.20;99.90;;;;;;5128885;27;20131;-86
2021/08/07 00:36:16;;;;;;;;;;;17.20;99.90;;;;;;5124550;27;19923;-86
2021/08/07 00:38:42;;;;;;;;;;;17.20;99.90;;;;;;5147621;27;19929;-85
2021/08/07 00:41:08;;;;;;;;;;;17.20;99.90;;;;;;5129176;27;20408;-86
2021/08/07 00:43:33;;;;;;;;;;;17.20;99.90;;;;;;5129609;27;19923;-86
2021/08/07 00:45:59;;;;;;;;;;;17.20;99.90;;;;;;5147239;27;19929;-86
2021/08/07 00:48:26;;;;;;;;;;;17.10;99.90;;;;;;5129476;27;19923;-86
2021/08/07 00:50:52;;;;;;;;;;;17.20;99.90;;;;;;5147400;27;20031;-86
2021/08/07 00:53:19;;;;;;;;;;;17.10;99.90;;;;;;5149007;27;20010;-86
2021/08/07 00:55:44;;;;;;;;;;;17.10;99.90;;;;;;5167757;27;20416;-86
2021/08/07 00:58:10;;;;;;;;;;;17.10;99.90;;;;;;5146201;27;19927;-86
2021/08/07 01:00:36;;;;;;;;;;;17.10;99.90;;;;;;5147883;27;19942;-86
2021/08/07 01:03:20;;;;;;;;;;;17.10;99.90;;;;;;5147477;27;19923;-86
2021/08/07 01:06:06;;;;;;;;;;;17.10;99.90;;;;;;5145371;27;19919;-86
2021/08/07 01:08:37;;;;;;;;;;;17.00;99.90;;;;;;5128610;27;19967;-86
2021/08/07 01:11:12;;;;;;;;;;;17.00;99.90;;;;;;5126484;27;19931;-86
2021/08/07 01:13:41;;;;;;;;;;;17.00;99.90;;;;;;5125464;27;20014;-86
2021/08/07 01:16:18;;;;;;;;;;;17.00;99.90;;;;;;5126083;27;20206;-86
2021/08/07 01:18:46;;;;;;;;;;;16.90;99.90;;;;;;5125159;27;19930;-86
2021/08/07 01:21:24;;;;;;;;;;;16.90;99.90;;;;;;5125248;27;19923;-86
2021/08/07 01:23:51;;;;;;;;;;;16.90;99.90;;;;;;5126475;27;20018;-86
2021/08/07 01:26:29;;;;;;;;;;;16.80;99.90;;;;;;5124386;27;19923;-86
2021/08/07 01:28:57;;;;;;;;;;;16.80;99.90;;;;;;5126519;27;19923;-86
2021/08/07 01:31:23;;;;;;;;;;;16.80;99.90;;;;;;5135545;27;19973;-86
2021/08/07 01:33:49;;;;;;;;;;;16.80;99.90;;;;;;5145642;27;19919;-86
2021/08/07 01:36:16;;;;;;;;;;;16.80;99.90;;;;;;5146311;27;20014;-86
2021/08/07 01:38:43;;;;;;;;;;;16.80;99.90;;;;;;5147124;27;19923;-86
2021/08/07 01:41:14;;;;;;;;;;;16.80;99.90;;;;;;5146702;27;20907;-86
2021/08/07 01:43:41;;;;;;;;;;;16.80;99.90;;;;;;5145413;27;19971;-86
2021/08/07 01:46:06;;;;;;;;;;;16.80;99.90;;;;;;5144997;27;19957;-86
2021/08/07 01:48:37;;;;;;;;;;;16.80;99.90;;;;;;5130108;27;19945;-86
2021/08/07 01:51:06;;;;;;;;;;;16.70;99.90;;;;;;5125089;27;19976;-86
2021/08/07 01:53:33;;;;;;;;;;;16.70;99.90;;;;;;5146744;27;19923;-86
2021/08/07 01:56:04;;;;;;;;;;;16.70;99.90;;;;;;5132527;27;20572;-86
2021/08/07 01:58:38;;;;;;;;;;;16.70;99.90;;;;;;5149535;27;19923;-86
2021/08/07 02:01:04;;;;;;;;;;;16.70;99.90;;;;;;5148527;27;19944;-86
2021/08/07 02:03:32;;;;;;;;;;;16.60;99.90;;;;;;5157924;27;20366;-86
2021/08/07 02:05:58;;;;;;;;;;;16.60;99.90;;;;;;5137226;27;19958;-86
2021/08/07 02:08:23;;;;;;;;;;;16.60;99.90;;;;;;5143111;27;19968;-87
2021/08/07 02:10:49;;;;;;;;;;;16.60;99.90;;;;;;5144277;27;19934;-88
2021/08/07 02:13:16;;;;;;;;;;;16.50;99.90;;;;;;5131452;27;20025;-88
2021/08/07 02:15:45;;;;;;;;;;;16.50;99.90;;;;;;5156200;27;19926;-88
2021/08/07 02:18:12;;;;;;;;;;;16.50;99.90;;;;;;5133886;27;19934;-87
2021/08/07 02:20:38;;;;;;;;;;;16.40;99.90;;;;;;5154532;27;19962;-88
2021/08/07 02:23:04;;;;;;;;;;;16.40;99.90;;;;;;5138509;27;19923;-86
2021/08/07 02:25:30;;;;;;;;;;;16.40;99.90;;;;;;5153610;27;19929;-85
2021/08/07 02:27:56;;;;;;;;;;;16.40;99.90;;;;;;5136547;27;19923;-87
2021/08/07 02:30:22;;;;;;;;;;;16.40;99.90;;;;;;5148761;27;19973;-88
2021/08/07 02:32:48;;;;;;;;;;;16.40;99.90;;;;;;5145526;27;19962;-87
2021/08/07 02:35:15;;;;;;;;;;;16.40;99.90;;;;;;5141324;27;19957;-86
2021/08/07 02:37:41;;;;;;;;;;;16.50;99.90;;;;;;5134719;27;19923;-86
2021/08/07 02:40:08;;;;;;;;;;;16.50;99.90;;;;;;5146462;27;19919;-85
2021/08/07 02:42:34;;;;;;;;;;;16.50;99.90;;;;;;5146946;27;19981;-85
2021/08/07 02:45:03;;;;;;;;;;;16.50;99.90;;;;;;5166864;27;19964;-85
2021/08/07 02:47:29;;;;;;;;;;;16.50;99.90;;;;;;5128664;27;19927;-86
2021/08/07 02:49:55;;;;;;;;;;;16.50;99.90;;;;;;5132669;27;19927;-86
2021/08/07 02:52:21;;;;;;;;;;;16.50;99.90;;;;;;5130771;27;19976;-86
2021/08/07 02:54:47;;;;;;;;;;;16.50;99.90;;;;;;5157448;27;20490;-85
2021/08/07 02:57:14;;;;;;;;;;;16.50;99.90;;;;;;5157124;27;20033;-86
2021/08/07 02:59:39;;;;;;;;;;;16.50;99.90;;;;;;5150575;27;19938;-86
2021/08/07 03:02:07;;;;;;;;;;;16.50;99.90;;;;;;5137379;27;19968;-86
2021/08/07 03:04:33;;;;;;;;;;;16.40;99.90;;;;;;5141048;27;19927;-85
2021/08/07 03:06:59;;;;;;;;;;;16.40;99.90;;;;;;5143429;27;19926;-85
2021/08/07 03:09:25;;;;;;;;;;;16.40;99.90;;;;;;5152403;27;19923;-86
2021/08/07 03:11:50;;;;;;;;;;;16.40;99.90;;;;;;5153160;27;19922;-86
2021/08/07 03:14:16;;;;;;;;;;;16.40;99.90;;;;;;5143864;27;20521;-85
2021/08/07 03:16:42;;;;;;;;;;;16.30;99.90;;;;;;5160540;27;20341;-86
2021/08/07 03:19:07;;;;;;;;;;;16.30;99.90;;;;;;5154950;27;19984;-85
2021/08/07 03:21:33;;;;;;;;;;;16.30;99.90;;;;;;5165636;27;20489;-85
2021/08/07 03:23:59;;;;;;;;;;;16.20;99.90;;;;;;5158056;27;19923;-86
2021/08/07 03:26:25;;;;;;;;;;;16.20;99.90;;;;;;5149303;27;19962;-86
2021/08/07 03:28:51;;;;;;;;;;;16.10;99.90;;;;;;5130576;27;19922;-85
2021/08/07 03:31:17;;;;;;;;;;;16.10;99.90;;;;;;5148799;27;19923;-86
2021/08/07 03:33:43;;;;;;;;;;;16.10;99.90;;;;;;5130203;27;20420;-86
2021/08/07 03:36:09;;;;;;;;;;;16.10;99.90;;;;;;5148899;27;19966;-86
2021/08/07 03:38:35;;;;;;;;;;;16.10;99.90;;;;;;5149260;27;20338;-85
2021/08/07 03:41:01;;;;;;;;;;;16.10;99.90;;;;;;5148578;27;19923;-85
2021/08/07 03:43:27;;;;;;;;;;;16.10;99.90;;;;;;5148729;27;19930;-85
2021/08/07 03:45:53;;;;;;;;;;;16.10;99.90;;;;;;5148867;27;20339;-86
2021/08/07 03:48:18;;;;;;;;;;;16.10;99.90;;;;;;5126250;27;19923;-85
2021/08/07 03:50:45;;;;;;;;;;;16.10;99.90;;;;;;5147385;27;19950;-85
2021/08/07 03:53:10;;;;;;;;;;;16.10;99.90;;;;;;5147949;27;20373;-86
2021/08/07 03:55:36;;;;;;;;;;;16.10;99.90;;;;;;5150390;27;21246;-86
2021/08/07 03:58:02;;;;;;;;;;;16.10;99.90;;;;;;5168407;27;19927;-85
2021/08/07 04:00:29;;;;;;;;;;;16.00;99.90;;;;;;5132138;27;20406;-85
2021/08/07 04:02:55;;;;;;;;;;;16.00;99.90;;;;;;5148004;27;19919;-85
2021/08/07 04:05:21;;;;;;;;;;;16.00;99.90;;;;;;5148726;27;19930;-86
2021/08/07 04:07:46;;;;;;;;;;;15.90;99.90;;;;;;5141795;27;20018;-85
2021/08/07 04:10:13;;;;;;;;;;;15.90;99.90;;;;;;5169082;27;20297;-85
2021/08/07 04:12:38;;;;;;;;;;;15.90;99.90;;;;;;5168555;27;19922;-85
2021/08/07 04:15:05;;;;;;;;;;;15.80;99.90;;;;;;5150462;27;19963;-85
2021/08/07 04:17:31;;;;;;;;;;;15.80;99.90;;;;;;5154722;27;20443;-85
2021/08/07 04:19:57;;;;;;;;;;;15.80;99.90;;;;;;5148397;27;19976;-85
2021/08/07 04:22:23;;;;;;;;;;;15.80;99.90;;;;;;5147648;27;19923;-85
2021/08/07 04:24:48;;;;;;;;;;;15.80;99.90;;;;;;5152163;27;19923;-85
2021/08/07 04:27:14;;;;;;;;;;;15.80;99.90;;;;;;5150153;27;20395;-85
2021/08/07 04:29:40;;;;;;;;;;;15.80;99.90;;;;;;5168702;27;20334;-85
2021/08/07 04:32:06;;;;;;;;;;;15.70;99.90;;;;;;5168388;27;19958;-86
2021/08/07 04:34:31;;;;;;;;;;;15.70;99.90;;;;;;5150180;27;20341;-85
2021/08/07 04:36:57;;;;;;;;;;;15.70;99.90;;;;;;5150240;27;20007;-85
2021/08/07 04:39:23;;;;;;;;;;;15.70;99.90;;;;;;5169005;27;19949;-86
2021/08/07 04:41:49;;;;;;;;;;;15.70;99.90;;;;;;5167858;27;19929;-85
2021/08/07 04:44:15;;;;;;;;;;;15.70;99.90;;;;;;5149742;27;20386;-85
2021/08/07 04:46:40;;;;;;;;;;;15.70;99.90;;;;;;5167567;27;19979;-85
2021/08/07 04:49:06;;;;;;;;;;;15.60;99.90;;;;;;5150097;27;19929;-85
2021/08/07 04:51:32;;;;;;;;;;;15.60;99.90;;;;;;5163541;27;19930;-85
2021/08/07 04:53:58;;;;;;;;;;;15.70;99.90;;;;;;5146998;27;19930;-85
2021/08/07 04:56:23;;;;;;;;;;;15.70;99.90;;;;;;5147750;27;19946;-86
2021/08/07 04:58:49;;;;;;;;;;;15.70;99.90;;;;;;5147525;27;19923;-85
2021/08/07 05:01:15;;;;;;;;;;;15.80;99.90;;;;;;5147480;27;19954;-85
2021/08/07 05:03:41;;;;;;;;;;;15.80;99.90;;;;;;5128532;27;19922;-85
2021/08/07 05:06:06;;;;;;;;;;;15.80;99.90;;;;;;5146741;27;20006;-86
2021/08/07 05:08:35;;;;;;;;;;;15.80;99.90;;;;;;5139198;27;19923;-85
2021/08/07 05:11:01;;;;;;;;;;;15.80;99.90;;;;;;5129038;27;19923;-85
2021/08/07 05:13:26;;;;;;;;;;;15.90;99.90;;;;;;5127605;27;19919;-86
2021/08/07 05:15:52;;;;;;;;;;;15.90;99.90;;;;;;5145944;27;19927;-85
2021/08/07 05:18:18;;;;;;;;;;;15.90;99.90;;;;;;5146976;27;20500;-85
2021/08/07 05:20:43;;;;;;;;;;;15.90;99.90;;;;;;5128155;27;19922;-85
2021/08/07 05:23:09;;;;;;;;;;;15.90;99.90;;;;;;5145675;27;20394;-85
2021/08/07 05:25:35;;;;;;;;;;;15.90;99.90;;;;;;5147165;27;19919;-85
2021/08/07 05:28:00;;;;;;;;;;;15.90;99.90;;;;;;5147005;27;19929;-85
2021/08/07 05:30:26;;;;;;;;;;;15.90;99.90;;;;;;5147085;27;20378;-85
2021/08/07 05:32:52;;;;;;;;;;;15.90;99.90;;;;;;5146750;27;20389;-85
2021/08/07 05:35:17;;;;;;;;;;;15.90;99.90;;;;;;5146286;27;19979;-85
2021/08/07 05:37:44;;;;;;;;;;;15.90;99.90;;;;;;5146739;27;20326;-86
2021/08/07 05:40:11;;;;;;;;;;;15.90;99.90;;;;;;5146500;27;20013;-85
2021/08/07 05:42:37;;;;;;;;;;;15.90;99.90;;;;;;5146442;27;20013;-85
2021/08/07 05:45:03;;;;;;;;;;;16.00;99.90;;;;;;5146288;27;20404;-85
2021/08/07 05:47:29;;;;;;;;;;;15.90;99.90;;;;;;5146678;27;19930;-86
2021/08/07 05:49:54;;;;;;;;;;;16.00;99.90;;;;;;5146723;27;20022;-86
2021/08/07 05:52:20;;;;;;;;;;;16.00;99.90;;;;;;5158481;27;20390;-86
2021/08/07 05:54:46;;;;;;;;;;;16.00;99.90;;;;;;5110644;27;19930;-86
2021/08/07 05:57:12;;;;;;;;;;;16.00;99.90;;;;;;5128339;27;19926;-85
2021/08/07 05:59:38;;;;;;;;;;;16.00;99.90;;;;;;5127794;27;19981;-86
2021/08/07 06:02:03;;;;;;;;;;;16.10;99.90;;;;;;5128225;27;19923;-85
2021/08/07 06:04:29;;;;;;;;;;;16.10;99.90;;;;;;5145835;27;20020;-85
2021/08/07 06:06:55;;;;;;;;;;;16.10;99.90;;;;;;5150982;27;19925;-85
2021/08/07 06:09:20;;;;;;;;;;;16.10;99.90;;;;;;5149135;27;20485;-85
2021/08/07 06:11:46;;;;;;;;;;;16.10;99.90;;;;;;5167282;27;20369;-85
2021/08/07 06:14:12;;;;;;;;;;;16.20;99.90;;;;;;5167146;27;19945;-86
2021/08/07 06:16:37;;;;;;;;;;;16.20;99.90;;;;;;5166485;27;19922;-86
2021/08/07 06:19:03;;;;;;;;;;;16.20;99.90;;;;;;5167350;27;19948;-85
2021/08/07 06:21:29;;;;;;;;;;;16.20;99.90;;;;;;5148650;27;19930;-86
2021/08/07 06:23:58;;;;;;;;;;;16.20;99.90;;;;;;5167121;27;20079;-86
2021/08/07 06:26:24;;;;;;;;;;;16.20;99.90;;;;;;5147960;27;19926;-85
2021/08/07 06:28:50;;;;;;;;;;;16.30;99.90;;;;;;5167315;27;19919;-85
2021/08/07 06:31:15;;;;;;;;;;;16.30;99.90;;;;;;5167175;27;20029;-86
2021/08/07 06:33:41;;;;;;;;;;;16.30;99.90;;;;;;5169169;27;19919;-86
2021/08/07 06:36:07;;;;;;;;;;;16.40;99.90;;;;;;5152132;27;20441;-86
2021/08/07 06:38:33;;;;;;;;;;;16.40;99.90;;;;;;5152598;27;20005;-86
2021/08/07 06:40:58;;;;;;;;;;;16.40;99.90;;;;;;5171217;27;19923;-85
2021/08/07 06:43:24;;;;;;;;;;;16.40;99.90;;;;;;5171256;27;19923;-86
2021/08/07 06:45:50;;;;;;;;;;;16.50;99.90;;;;;;5170563;27;20509;-86
2021/08/07 06:48:16;;;;;;;;;;;16.50;99.90;;;;;;5152389;27;19933;-86
2021/08/07 06:50:42;;;;;;;;;;;16.60;99.90;;;;;;5170708;27;20017;-85
2021/08/07 06:53:08;;;;;;;;;;;16.70;99.90;;;;;;5152476;27;20401;-86
2021/08/07 06:55:34;;;;;;;;;;;16.90;99.90;;;;;;5131470;27;19923;-86
2021/08/07 06:57:59;;;;;;;;;;;17.00;99.90;;;;;;5140423;27;19931;-86
2021/08/07 07:00:25;;;;;;;;;;;17.00;99.90;;;;;;5131562;27;19926;-85
2021/08/07 07:02:50;;;;;;;;;;;17.10;99.90;;;;;;5152064;27;19918;-86
2021/08/07 07:05:16;;;;;;;;;;;17.10;99.90;;;;;;5151981;27;19923;-85
2021/08/07 07:07:42;;;;;;;;;;;17.10;99.90;;;;;;5158599;27;19954;-85
2021/08/07 07:10:08;;;;;;;;;;;17.20;99.90;;;;;;5150250;27;19923;-85
2021/08/07 07:12:34;;;;;;;;;;;17.20;99.90;;;;;;5149521;27;19923;-85
2021/08/07 07:14:59;;;;;;;;;;;17.20;99.90;;;;;;5149697;27;20374;-86
2021/08/07 07:17:26;;;;;;;;;;;17.30;99.90;;;;;;5148868;27;20274;-86
2021/08/07 07:19:51;;;;;;;;;;;17.40;99.90;;;;;;5149723;27;20384;-86
2021/08/07 07:22:17;;;;;;;;;;;17.30;99.90;;;;;;5149279;27;20380;-86
2021/08/07 07:24:43;;;;;;;;;;;17.30;99.90;;;;;;5149536;27;20671;-85
2021/08/07 07:27:08;;;;;;;;;;;17.30;99.90;;;;;;5148746;27;20451;-85
2021/08/07 07:29:34;;;;;;;;;;;17.30;99.90;;;;;;5130831;27;19919;-86
2021/08/07 07:32:00;;;;;;;;;;;17.30;99.90;;;;;;5149640;27;20389;-86
2021/08/07 07:34:25;;;;;;;;;;;17.30;99.90;;;;;;5130559;27;19919;-85
2021/08/07 07:36:51;;;;;;;;;;;17.30;99.90;;;;;;5130582;27;19927;-86
2021/08/07 07:39:17;;;;;;;;;;;17.40;99.90;;;;;;5148906;27;19930;-86
2021/08/07 07:41:43;;;;;;;;;;;17.30;99.90;;;;;;5148860;27;20370;-85
2021/08/07 07:44:09;;;;;;;;;;;17.30;99.90;;;;;;5148679;27;19929;-85
2021/08/07 07:46:34;;;;;;;;;;;17.30;99.90;;;;;;5148977;27;19968;-85
2021/08/07 07:49:00;;;;;;;;;;;17.30;99.90;;;;;;5148298;27;19919;-86
2021/08/07 07:51:26;;;;;;;;;;;17.30;99.90;;;;;;5152869;27;19937;-85
2021/08/07 07:53:52;;;;;;;;;;;17.40;99.90;;;;;;5161279;27;19927;-86
2021/08/07 07:56:20;;;;;;;;;;;17.40;99.90;;;;;;5148657;27;20419;-86
2021/08/07 07:58:46;;;;;;;;;;;17.40;99.90;;;;;;5150987;27;20006;-86
2021/08/07 08:01:11;;;;;;;;;;;17.30;99.90;;;;;;5170376;27;20321;-86
2021/08/07 08:03:37;;;;;;;;;;;17.40;99.90;;;;;;5169223;27;19977;-86
2021/08/07 08:06:04;;;;;;;;;;;17.30;99.90;;;;;;5150677;27;19926;-86
2021/08/07 08:08:29;;;;;;;;;;;17.30;99.90;;;;;;5132444;27;19922;-85
2021/08/07 08:10:55;;;;;;;;;;;17.30;99.90;;;;;;5129895;27;19926;-85
2021/08/07 08:13:21;;;;;;;;;;;17.30;99.90;;;;;;5129938;27;19923;-85
2021/08/07 08:15:47;;;;;;;;;;;17.20;99.90;;;;;;5130025;27;19923;-85
2021/08/07 08:18:12;;;;;;;;;;;17.20;99.90;;;;;;5129642;27;19968;-85
2021/08/07 08:20:38;;;;;;;;;;;17.20;99.90;;;;;;5147583;27;19984;-85
2021/08/07 08:23:04;;;;;;;;;;;17.20;99.90;;;;;;5147928;27;20609;-86
2021/08/07 08:25:30;;;;;;;;;;;17.20;99.90;;;;;;5129653;27;19924;-86
2021/08/07 08:27:56;;;;;;;;;;;17.20;99.90;;;;;;5148300;27;19923;-86
2021/08/07 08:30:22;;;;;;;;;;;17.20;99.90;;;;;;5147613;27;20404;-86
2021/08/07 08:32:48;;;;;;;;;;;17.20;99.90;;;;;;5148462;27;19956;-85
2021/08/07 08:35:13;;;;;;;;;;;17.20;99.90;;;;;;5148052;27;19923;-85
2021/08/07 08:37:39;;;;;;;;;;;17.20;99.90;;;;;;5158615;27;20377;-85
2021/08/07 08:40:06;;;;;;;;;;;17.20;99.90;;;;;;5168181;27;19927;-86
2021/08/07 08:42:32;;;;;;;;;;;17.30;99.90;;;;;;5150002;27;19922;-86
2021/08/07 08:44:58;;;;;;;;;;;17.40;99.90;;;;;;5150190;27;19919;-86
2021/08/07 08:47:24;;;;;;;;;;;17.50;99.90;;;;;;5149091;27;19930;-86
2021/08/07 08:49:53;;;;;;;;;;;17.60;99.90;;;;;;5146857;27;19915;-85
2021/08/07 08:52:24;;;;;;;;;;;17.80;99.90;;;;;;5140675;27;19922;-86
2021/08/07 08:54:52;;;;;;;;;;;17.80;99.90;;;;;;5168666;27;19927;-86
2021/08/07 08:57:18;;;;;;;;;;;17.80;99.90;;;;;;5148558;27;19919;-86
2021/08/07 08:59:44;;;;;;;;;;;17.90;99.90;;;;;;5168356;27;19934;-85
2021/08/07 09:02:09;;;;;;;;;;;18.10;99.90;;;;;;5168145;27;20389;-85
2021/08/07 09:04:35;;;;;;;;;;;18.20;99.90;;;;;;5168102;27;20397;-85
2021/08/07 09:07:01;;;;;;;;;;;18.40;99.90;;;;;;5162650;27;19923;-86
2021/08/07 09:09:37;;;;;;;;;;;18.50;99.90;;;;;;5129068;27;19930;-86
2021/08/07 09:12:03;;;;;;;;;;;18.50;99.90;;;;;;5143869;27;19923;-86
2021/08/07 09:14:30;;;;;;;;;;;18.50;99.90;;;;;;5146798;27;19930;-86
2021/08/07 09:17:03;;;;;;;;;;;18.50;99.90;;;;;;5147275;27;20425;-86
2021/08/07 09:19:48;;;;;;;;;;;18.60;99.90;;;;;;5167289;27;19919;-86
2021/08/07 09:22:28;;;;;;;;;;;18.60;99.90;;;;;;5130781;27;19923;-86
2021/08/07 09:24:56;;;;;;;;;;;18.70;99.90;;;;;;5168222;27;19926;-86
2021/08/07 09:27:28;;;;;;;;;;;18.70;99.90;;;;;;5148825;27;19929;-86
2021/08/07 09:29:54;;;;;;;;;;;18.80;99.90;;;;;;5167802;27;19923;-85
2021/08/07 09:32:19;;;;;;;;;;;18.90;99.90;;;;;;5168377;27;20381;-86
2021/08/07 09:35:01;;;;;;;;;;;19.00;99.90;;;;;;5149324;27;19923;-87
2021/08/07 09:37:28;;;;;;;;;;;19.10;99.90;;;;;;5168040;27;19926;-87
2021/08/07 09:39:54;;;;;;;;;;;19.10;99.90;;;;;;5167956;27;19923;-87
2021/08/07 09:42:19;;;;;;;;;;;19.20;99.90;;;;;;5148452;27;20420;-86
2021/08/07 09:44:58;;;;;;;;;;;19.20;99.90;;;;;;5137113;27;20014;-87
2021/08/07 09:47:24;;;;;;;;;;;19.10;99.90;;;;;;5146876;27;20373;-87
2021/08/07 09:49:49;;;;;;;;;;;19.10;99.90;;;;;;5147102;27;20330;-86
2021/08/07 09:52:15;;;;;;;;;;;19.00;99.90;;;;;;5138416;27;19926;-86
2021/08/07 09:54:42;;;;;;;;;;;19.00;99.90;;;;;;5167619;27;20433;-86
2021/08/07 09:57:12;;;;;;;;;;;19.00;99.90;;;;;;5148712;27;20299;-85
2021/08/07 09:59:47;;;;;;;;;;;19.00;99.90;;;;;;5148585;27;19934;-85
2021/08/07 10:02:22;;;;;;;;;;;19.10;99.90;;;;;;5167347;27;20010;-85
2021/08/07 10:04:47;;;;;;;;;;;19.20;99.90;;;;;;5167347;27;19922;-86
2021/08/07 10:07:13;;;;;;;;;;;19.30;99.90;;;;;;5141128;27;19919;-87
2021/08/07 10:09:39;;;;;;;;;;;19.30;99.90;;;;;;5127586;27;19927;-85
2021/08/07 10:12:07;;;;;;;;;;;19.40;99.90;;;;;;5146498;27;19985;-86
2021/08/07 10:14:33;;;;;;;;;;;19.30;99.90;;;;;;5127120;27;20405;-86
2021/08/07 10:16:59;;;;;;;;;;;19.30;99.90;;;;;;5146595;27;19965;-86
2021/08/07 10:19:25;;;;;;;;;;;19.30;99.90;;;;;;5146653;27;19926;-85
2021/08/07 10:21:51;;;;;;;;;;;19.30;99.90;;;;;;5146335;27;19919;-88
2021/08/07 10:24:18;;;;;;;;;;;19.40;99.90;;;;;;5127604;27;19926;-89
2021/08/07 10:26:45;;;;;;;;;;;19.40;99.90;;;;;;5128415;27;19934;-86
2021/08/07 10:29:12;;;;;;;;;;;19.40;99.90;;;;;;5146489;27;20405;-86
2021/08/07 10:31:38;;;;;;;;;;;19.50;99.90;;;;;;5146757;27;20014;-86
2021/08/07 10:34:05;;;;;;;;;;;19.50;99.90;;;;;;5145853;27;20355;-86
2021/08/07 10:36:31;;;;;;;;;;;19.40;99.90;;;;;;5146080;27;19934;-86
2021/08/07 10:38:57;;;;;;;;;;;19.40;99.90;;;;;;5145951;27;19926;-86
2021/08/07 10:41:27;;;;;;;;;;;19.50;99.90;;;;;;5146374;27;19920;-86
2021/08/07 10:43:54;;;;;;;;;;;19.50;99.90;;;;;;5147938;27;19922;-87
2021/08/07 10:46:20;;;;;;;;;;;19.60;99.90;;;;;;5136904;27;19934;-87
2021/08/07 10:48:50;;;;;;;;;;;19.70;99.90;;;;;;5150180;27;19937;-87
2021/08/07 10:51:15;;;;;;;;;;;19.90;99.90;;;;;;5149493;27;20423;-86
2021/08/07 10:53:41;;;;;;;;;;;20.00;99.90;;;;;;5166656;27;19918;-87
2021/08/07 10:56:07;;;;;;;;;;;20.20;99.90;;;;;;5148251;27;20425;-87
2021/08/07 10:58:34;;;;;;;;;;;20.30;99.90;;;;;;5166930;27;20146;-86
2021/08/07 11:01:19;;;;;;;;;;;20.50;99.90;;;;;;5161563;27;19927;-87
2021/08/07 11:03:45;;;;;;;;;;;20.60;99.90;;;;;;5146354;27;19923;-86
2021/08/07 11:06:12;;;;;;;;;;;20.60;99.90;;;;;;5126843;27;20449;-87
2021/08/07 11:08:37;;;;;;;;;;;20.50;99.90;;;;;;5146705;27;19929;-87
2021/08/07 11:11:22;;;;;;;;;;;20.40;99.90;;;;;;5167006;27;19922;-87
2021/08/07 11:13:48;;;;;;;;;;;20.30;99.90;;;;;;5148466;27;19923;-86
2021/08/07 11:16:18;;;;;;;;;;;20.10;99.90;;;;;;5166226;27;19933;-86
2021/08/07 11:18:43;;;;;;;;;;;19.90;99.90;;;;;;5166795;27;20014;-86
2021/08/07 11:21:28;;;;;;;;;;;19.80;99.90;;;;;;5168449;27;20045;-86
2021/08/07 11:23:54;;;;;;;;;;;19.80;99.90;;;;;;5157833;27;20005;-86
2021/08/07 11:26:39;;;;;;;;;;;19.80;99.90;;;;;;5157162;27;20014;-86
2021/08/07 11:29:06;;;;;;;;;;;19.90;99.90;;;;;;5163957;27;20330;-86
2021/08/07 11:31:32;;;;;;;;;;;20.00;99.90;;;;;;5150612;27;20449;-86
2021/08/07 11:34:16;;;;;;;;;;;20.10;99.90;;;;;;5169469;27;19930;-86
2021/08/07 11:37:19;;;;;;;;;;;20.20;99.90;;;;;;5148661;27;20443;-86
2021/08/07 11:40:03;;;;;;;;;;;20.30;99.90;;;;;;5054757;28;20141;-86
2021/08/07 11:42:36;;;;;;;;;;;20.40;99.90;;;;;;5143033;27;19923;-86
2021/08/07 11:45:02;;;;;;;;;;;20.50;99.90;;;;;;5150903;27;19922;-86
2021/08/07 11:47:28;;;;;;;;;;;20.60;99.90;;;;;;5169342;27;19915;-86
2021/08/07 11:49:54;;;;;;;;;;;20.60;99.90;;;;;;5151395;27;21311;-86
2021/08/07 11:52:20;;;;;;;;;;;20.70;99.90;;;;;;5157941;27;19987;-86
2021/08/07 11:54:51;;;;;;;;;;;20.70;99.90;;;;;;5148841;27;19954;-86
2021/08/07 11:57:24;;;;;;;;;;;20.70;99.90;;;;;;5135126;27;19951;-86
2021/08/07 11:59:51;;;;;;;;;;;20.80;99.90;;;;;;5156911;27;19950;-86
2021/08/07 12:02:16;;;;;;;;;;;20.90;99.90;;;;;;5149036;27;20288;-86
2021/08/07 12:04:42;;;;;;;;;;;21.00;99.90;;;;;;5148738;27;20463;-86
2021/08/07 12:07:11;;;;;;;;;;;21.10;99.90;;;;;;5154856;27;19923;-87
2021/08/07 12:09:37;;;;;;;;;;;21.20;99.90;;;;;;5169342;27;19962;-86
2021/08/07 12:12:03;;;;;;;;;;;21.30;99.90;;;;;;5150723;27;20404;-86
2021/08/07 12:14:29;;;;;;;;;;;21.20;99.90;;;;;;5169372;27;20049;-86
2021/08/07 12:17:03;;;;;;;;;;;21.20;99.90;;;;;;5168833;27;20017;-86
2021/08/07 12:19:29;;;;;;;;;;;21.20;99.90;;;;;;5169481;27;19929;-86
2021/08/07 12:22:03;;;;;;;;;;;21.30;99.90;;;;;;5171078;27;20376;-86
2021/08/07 12:24:28;;;;;;;;;;;21.30;99.90;;;;;;5170773;27;20042;-86
2021/08/07 12:26:55;;;;;;;;;;;21.30;99.90;;;;;;5168923;27;20523;-86
2021/08/07 12:29:22;;;;;;;;;;;21.20;99.90;;;;;;5150291;27;19941;-86
2021/08/07 12:31:49;;;;;;;;;;;21.10;99.90;;;;;;5153728;27;20381;-86
2021/08/07 12:34:17;;;;;;;;;;;21.10;99.90;;;;;;5148539;27;20042;-86
2021/08/07 12:36:54;;;;;;;;;;;21.00;99.90;;;;;;5147944;27;19934;-86
2021/08/07 12:39:19;;;;;;;;;;;20.90;99.90;;;;;;5128991;27;20015;-86
2021/08/07 12:41:45;;;;;;;;;;;20.90;99.90;;;;;;5147929;27;20027;-86
2021/08/07 12:44:21;;;;;;;;;;;20.70;99.90;;;;;;5148036;27;20395;-86
2021/08/07 12:46:48;;;;;;;;;;;20.60;99.90;;;;;;5147848;27;19926;-86
2021/08/07 12:49:14;;;;;;;;;;;20.50;99.90;;;;;;5147393;27;19919;-86
2021/08/07 12:51:40;;;;;;;;;;;20.40;99.90;;;;;;5153600;27;19923;-87
2021/08/07 12:54:16;;;;;;;;;;;20.30;99.90;;;;;;5168653;27;20033;-86
2021/08/07 12:56:48;;;;;;;;;;;20.20;99.90;;;;;;5168256;27;20086;-86
2021/08/07 12:59:16;;;;;;;;;;;20.20;99.90;;;;;;5149435;27;20310;-86
2021/08/07 13:01:57;;;;;;;;;;;20.10;99.90;;;;;;5168480;27;19927;-86
2021/08/07 13:04:37;;;;;;;;;;;20.00;99.90;;;;;;5150064;27;19919;-86
2021/08/07 13:07:03;;;;;;;;;;;20.00;99.90;;;;;;5162765;27;20014;-86
2021/08/07 13:09:29;;;;;;;;;;;19.80;99.90;;;;;;5128698;27;20123;-86
2021/08/07 13:12:07;;;;;;;;;;;19.60;99.90;;;;;;5147469;27;19923;-86
2021/08/07 13:14:33;;;;;;;;;;;19.40;99.90;;;;;;5128873;27;20377;-86
2021/08/07 13:16:59;;;;;;;;;;;19.20;99.90;;;;;;5147540;27;19930;-86
2021/08/07 13:19:26;;;;;;;;;;;19.10;99.90;;;;;;5146821;27;19927;-85
2021/08/07 13:21:53;;;;;;;;;;;18.90;99.90;;;;;;5147388;27;20573;-86
2021/08/07 13:24:29;;;;;;;;;;;18.70;99.90;;;;;;5147390;27;19929;-86
2021/08/07 13:26:55;;;;;;;;;;;18.70;99.90;;;;;;5128502;27;19974;-86
2021/08/07 13:29:22;;;;;;;;;;;18.60;99.90;;;;;;5146555;27;19930;-86
2021/08/07 13:31:48;;;;;;;;;;;18.60;99.90;;;;;;5158893;27;20317;-86
2021/08/07 13:34:13;;;;;;;;;;;18.60;99.90;;;;;;5168517;27;19919;-86
2021/08/07 13:36:39;;;;;;;;;;;18.60;99.90;;;;;;5168011;27;20373;-86
2021/08/07 13:39:05;;;;;;;;;;;18.60;99.90;;;;;;5149161;27;19923;-86
2021/08/07 13:41:31;;;;;;;;;;;18.70;99.90;;;;;;5167298;27;20009;-86
2021/08/07 13:43:56;;;;;;;;;;;18.80;99.90;;;;;;5148674;27;19929;-86
2021/08/07 13:46:22;;;;;;;;;;;18.80;99.90;;;;;;5167393;27;20316;-86
2021/08/07 13:48:47;;;;;;;;;;;18.80;99.90;;;;;;5167721;27;20047;-86
2021/08/07 13:51:13;;;;;;;;;;;18.90;99.90;;;;;;5164712;27;19960;-86
2021/08/07 13:53:39;;;;;;;;;;;18.90;99.90;;;;;;5146898;27;19948;-86
2021/08/07 13:56:04;;;;;;;;;;;19.00;99.90;;;;;;5128115;27;19960;-86
2021/08/07 13:58:30;;;;;;;;;;;19.00;99.90;;;;;;5146668;27;20010;-86
2021/08/07 14:00:56;;;;;;;;;;;19.10;99.90;;;;;;5146313;27;19926;-86
2021/08/07 14:03:24;;;;;;;;;;;19.20;99.90;;;;;;5128777;27;19938;-86
2021/08/07 14:05:50;;;;;;;;;;;19.40;99.90;;;;;;5146660;27;19923;-86
2021/08/07 14:08:16;;;;;;;;;;;19.40;99.90;;;;;;5162920;27;19977;-86
2021/08/07 14:10:42;;;;;;;;;;;19.50;99.90;;;;;;5166978;27;20433;-86
2021/08/07 14:13:07;;;;;;;;;;;19.50;99.90;;;;;;5148595;27;19958;-86
2021/08/07 14:15:33;;;;;;;;;;;19.50;99.90;;;;;;5167610;27;19923;-86
2021/08/07 14:18:03;;;;;;;;;;;19.50;99.90;;;;;;5162550;27;19967;-86